RJFA(METAR)
10/16 18:00
METAR RJFA 160900Z 03010KT 9999 FEW040 18/10 Q1022 RMK 1SC040 A3019
RWY30 04007KT=
戻る
トップページへ戻る
IMOC Co,.Ltd.